createdAt,value
2019-05-22T00:04:29.488Z,99595.44
2019-05-22T00:09:42.375Z,99595.44
2019-05-22T00:14:50.856Z,99604.59
2019-05-22T00:20:05.359Z,99604.59
2019-05-22T00:25:52.087Z,99594.05
2019-05-22T00:31:20.022Z,99593.09
2019-05-22T00:36:47.399Z,99589.08
2019-05-22T00:42:10.021Z,99594.98
2019-05-22T00:47:15.575Z,99597.12
2019-05-22T00:52:42.141Z,99598.37
2019-05-22T00:58:10.151Z,99595.07
2019-05-22T01:03:19.151Z,99588.79
2019-05-22T01:08:28.294Z,99588.79
2019-05-22T01:13:34.786Z,99620.50
2019-05-22T01:18:42.443Z,99620.50
2019-05-22T01:23:48.739Z,99608.61
2019-05-22T01:28:53.692Z,99617.56
2019-05-22T01:34:06.084Z,99617.56
2019-05-22T01:39:32.945Z,99616.48
2019-05-22T01:44:38.242Z,99623.38
2019-05-22T01:49:51.736Z,99623.38
2019-05-22T01:54:57.987Z,99621.92
2019-05-22T02:00:06.230Z,99629.67
2019-05-22T02:05:12.936Z,99625.87
2019-05-22T02:10:24.962Z,99639.86
2019-05-22T02:15:30.809Z,99639.86
2019-05-22T02:20:36.686Z,99619.19
2019-05-22T02:25:42.222Z,99636.56
2019-05-22T02:30:48.774Z,99640.74
2019-05-22T02:35:55.906Z,99631.19
2019-05-22T02:41:02.481Z,99649.97
2019-05-22T02:46:08.401Z,99646.92
2019-05-22T02:51:13.475Z,99650.58
2019-05-22T02:56:18.236Z,99661.51
2019-05-22T03:01:24.470Z,99667.02
2019-05-22T03:06:29.368Z,99657.21
2019-05-22T03:11:39.897Z,99661.75
2019-05-22T03:16:56.529Z,99661.75
2019-05-22T03:22:04.122Z,99672.30
2019-05-22T03:27:11.424Z,99683.97
2019-05-22T03:32:17.222Z,99683.97
2019-05-22T03:37:22.918Z,99695.75
2019-05-22T03:42:31.251Z,99706.78
2019-05-22T03:47:54.957Z,99708.39
2019-05-22T03:53:19.821Z,99708.62
2019-05-22T03:58:44.111Z,99724.34
2019-05-22T04:04:15.005Z,99717.17
2019-05-22T04:09:49.949Z,99730.50
2019-05-22T04:21:19.729Z,99728.69
2019-05-22T04:33:15.502Z,99740.31
2019-05-22T04:38:28.940Z,99744.14
2019-05-22T04:43:36.572Z,99757.13
2019-05-22T04:48:48.895Z,99731.89
2019-05-22T04:59:43.347Z,99762.04
2019-05-22T05:11:02.319Z,99757.73
2019-05-22T05:16:57.605Z,99770.50
2019-05-22T05:28:37.046Z,99776.52
2019-05-22T05:34:05.238Z,99778.47
2019-05-22T05:39:38.001Z,99782.52
2019-05-22T05:44:51.730Z,99792.94
2019-05-22T05:50:08.714Z,99801.02
2019-05-22T05:55:19.670Z,99798.47
2019-05-22T06:00:32.442Z,99799.45
2019-05-22T06:06:01.833Z,99803.59
2019-05-22T06:11:48.979Z,99809.48
2019-05-22T06:17:48.018Z,99797.62
2019-05-22T06:23:48.475Z,99819.55
2019-05-22T06:28:54.282Z,99827.09
2019-05-22T06:33:58.661Z,99829.28
2019-05-22T06:39:17.387Z,99829.28
2019-05-22T06:44:32.775Z,99851.45
2019-05-22T06:49:42.687Z,99851.45
2019-05-22T06:54:47.494Z,99855.08
2019-05-22T07:00:11.261Z,99845.86
2019-05-22T07:04:58.883Z,99845.86
2019-05-22T07:10:03.182Z,99863.60
2019-05-22T07:15:44.269Z,99875.95
2019-05-22T07:20:49.800Z,99875.95
2019-05-22T07:25:54.885Z,99900.84
2019-05-22T07:30:59.356Z,99897.06
2019-05-22T07:36:16.059Z,99899.13
2019-05-22T07:41:10.241Z,99897.74
2019-05-22T07:46:14.559Z,99898.75
2019-05-22T07:51:20.029Z,99905.06
2019-05-22T07:56:24.760Z,99901.27
2019-05-22T08:01:30.215Z,99901.27
2019-05-22T08:06:35.115Z,99905.19
2019-05-22T08:11:39.717Z,99905.19
2019-05-22T08:16:44.443Z,99918.34
2019-05-22T08:21:48.528Z,99912.48
2019-05-22T08:26:54.803Z,99927.75
2019-05-22T08:32:00.466Z,99935.47
2019-05-22T08:37:07.224Z,99943.70
2019-05-22T08:42:15.313Z,99938.61
2019-05-22T08:47:20.903Z,99938.99
2019-05-22T08:52:25.493Z,99938.99
2019-05-22T08:57:30.153Z,99948.67
2019-05-22T09:02:34.905Z,99965.30
2019-05-22T09:07:41.250Z,99959.36
2019-05-22T09:12:45.405Z,99976.95
2019-05-22T09:17:49.505Z,99972.86
2019-05-22T09:22:53.620Z,99973.34
2019-05-22T09:27:58.525Z,99973.89
2019-05-22T09:33:03.588Z,99973.89
2019-05-22T09:38:07.695Z,99976.09
2019-05-22T09:43:11.891Z,99977.84
2019-05-22T09:48:16.196Z,99977.84
2019-05-22T09:53:20.680Z,99979.34
2019-05-22T09:58:25.228Z,99996.27
2019-05-22T10:03:29.239Z,100003.11
2019-05-22T10:08:33.713Z,100008.55
2019-05-22T10:13:38.326Z,100011.55
2019-05-22T10:18:42.470Z,100019.97
2019-05-22T10:23:46.660Z,100008.91
2019-05-22T10:28:50.793Z,100008.91
2019-05-22T10:33:54.985Z,100024.64
2019-05-22T10:38:59.088Z,100024.64
2019-05-22T10:44:04.143Z,100033.63
2019-05-22T10:49:08.620Z,100033.25
2019-05-22T10:54:12.991Z,100034.91
2019-05-22T10:59:17.269Z,100034.91
2019-05-22T11:04:23.667Z,100034.42
2019-05-22T11:09:28.191Z,100034.42
2019-05-22T11:14:33.461Z,100035.39
2019-05-22T11:19:37.581Z,100040.17
2019-05-22T11:24:41.723Z,100039.48
2019-05-22T11:29:46.321Z,100049.12
2019-05-22T11:34:50.858Z,100047.49
2019-05-22T11:39:55.218Z,100053.73
2019-05-22T11:44:59.487Z,100053.73
2019-05-22T11:50:03.736Z,100062.34
2019-05-22T11:55:08.271Z,100059.40
2019-05-22T12:00:16.071Z,100059.48
2019-05-22T12:05:22.042Z,100059.48
2019-05-22T12:10:26.572Z,100062.11
2019-05-22T12:15:31.870Z,100071.38
2019-05-22T12:20:36.393Z,100069.12
2019-05-22T12:25:40.789Z,100084.89
2019-05-22T12:30:45.675Z,100091.30
2019-05-22T12:35:51.571Z,100091.30
2019-05-22T12:40:55.979Z,100101.03
2019-05-22T12:46:00.231Z,100101.69
2019-05-22T12:51:05.094Z,100108.18
2019-05-22T12:56:09.698Z,100104.89
2019-05-22T13:01:14.475Z,100110.73
2019-05-22T13:06:19.715Z,100109.22
2019-05-22T13:11:25.187Z,100111.59
2019-05-22T13:16:32.949Z,100121.80
2019-05-22T13:21:39.390Z,100116.79
2019-05-22T13:26:44.836Z,100120.67
2019-05-22T13:31:52.544Z,100119.69
2019-05-22T13:36:57.760Z,100118.26
2019-05-22T13:42:02.144Z,100128.91
2019-05-22T13:47:07.574Z,100138.27
2019-05-22T13:52:12.361Z,100138.27
2019-05-22T13:57:16.624Z,100146.50
2019-05-22T14:02:20.710Z,100149.50
2019-05-22T14:07:24.846Z,100149.50
2019-05-22T14:12:29.760Z,100160.82
2019-05-22T14:17:33.855Z,100156.78
2019-05-22T14:22:38.366Z,100135.36
2019-05-22T14:27:42.592Z,100155.08
2019-05-22T14:32:46.784Z,100153.16
2019-05-22T14:37:51.374Z,100170.41
2019-05-22T14:42:55.854Z,100170.41
2019-05-22T14:47:59.999Z,100164.73
2019-05-22T14:53:04.615Z,100160.94
2019-05-22T14:58:11.010Z,100165.77
2019-05-22T15:03:16.046Z,100165.59
2019-05-22T15:08:21.539Z,100171.52
2019-05-22T15:13:26.278Z,100172.80
2019-05-22T15:18:30.606Z,100170.92
2019-05-22T15:23:34.988Z,100170.92
2019-05-22T15:28:40.296Z,100178.50
2019-05-22T15:33:45.209Z,100170.66
2019-05-22T15:38:49.893Z,100187.22
2019-05-22T15:43:54.755Z,100191.67
2019-05-22T15:48:59.548Z,100196.84
2019-05-22T15:54:06.915Z,100196.84
2019-05-22T15:59:13.843Z,100195.92
2019-05-22T16:04:19.981Z,100195.14
2019-05-22T16:09:27.356Z,100192.91
2019-05-22T16:14:33.391Z,100190.91
2019-05-22T16:19:38.067Z,100184.90
2019-05-22T16:24:42.770Z,100191.70
2019-05-22T16:29:47.283Z,100184.44
2019-05-22T16:34:53.243Z,100184.44
2019-05-22T16:39:57.634Z,100198.11
2019-05-22T16:45:03.292Z,100197.31
2019-05-22T16:50:09.857Z,100204.25
2019-05-22T16:55:14.493Z,100203.45
2019-05-22T17:00:19.755Z,100209.67
2019-05-22T17:05:24.627Z,100209.67
2019-05-22T17:10:29.371Z,100210.95
2019-05-22T17:15:35.383Z,100201.36
2019-05-22T17:20:40.617Z,100211.16
2019-05-22T17:25:44.774Z,100216.59
2019-05-22T17:30:50.811Z,100206.37
2019-05-22T17:35:56.783Z,100201.08
2019-05-22T17:41:02.358Z,100216.31
2019-05-22T17:46:06.859Z,100217.88
2019-05-22T17:51:11.625Z,100218.00
2019-05-22T17:56:15.957Z,100210.45
2019-05-22T18:01:22.971Z,100218.97
2019-05-22T18:06:27.555Z,100234.44
2019-05-22T18:11:32.035Z,100234.44
2019-05-22T18:16:36.133Z,100242.28
2019-05-22T18:21:41.274Z,100236.94
2019-05-22T18:26:45.417Z,100248.33
2019-05-22T18:31:49.536Z,100250.25
2019-05-22T18:36:53.630Z,100250.25
2019-05-22T18:41:57.733Z,100268.75
2019-05-22T18:47:02.377Z,100268.75
2019-05-22T18:52:07.187Z,100274.87
2019-05-22T18:57:11.412Z,100286.88
2019-05-22T19:02:15.674Z,100286.88
2019-05-22T19:07:19.886Z,100296.27
2019-05-22T19:12:24.758Z,100294.31
2019-05-22T19:17:29.039Z,100304.00
2019-05-22T19:22:33.152Z,100305.34
2019-05-22T19:27:37.349Z,100305.75
2019-05-22T19:32:41.456Z,100304.65
2019-05-22T19:37:45.953Z,100310.91
2019-05-22T19:42:50.621Z,100312.13
2019-05-22T19:47:57.086Z,100310.20
2019-05-22T19:53:17.427Z,100316.45
2019-05-22T19:58:07.267Z,100316.02
2019-05-22T20:03:11.586Z,100316.02
2019-05-22T20:08:16.577Z,100322.63
2019-05-22T20:13:23.054Z,100320.42
2019-05-22T20:18:27.474Z,100320.42
2019-05-22T20:23:35.813Z,100319.08
2019-05-22T20:28:38.986Z,100317.52
2019-05-22T20:33:44.146Z,100298.69
2019-05-22T20:38:49.008Z,100313.36
2019-05-22T20:43:54.059Z,100314.70
2019-05-22T20:48:58.551Z,100316.98
2019-05-22T20:54:04.531Z,100312.05
2019-05-22T20:59:09.508Z,100319.41
2019-05-22T21:04:16.310Z,100320.75
2019-05-22T21:09:20.971Z,100320.75
2019-05-22T21:14:25.733Z,100326.02
2019-05-22T21:19:30.246Z,100326.02
2019-05-22T21:24:36.423Z,100331.30
2019-05-22T21:29:41.545Z,100329.95
2019-05-22T21:34:46.413Z,100337.18
2019-05-22T21:39:52.163Z,100338.90
2019-05-22T21:44:57.195Z,100340.73
2019-05-22T21:50:02.358Z,100354.59
2019-05-22T21:55:10.259Z,100354.59
2019-05-22T22:00:19.730Z,100355.36
2019-05-22T22:05:24.990Z,100359.78
2019-05-22T22:10:30.762Z,100359.78
2019-05-22T22:15:40.959Z,100356.55
2019-05-22T22:20:45.802Z,100367.26
2019-05-22T22:25:51.392Z,100358.38
2019-05-22T22:30:58.281Z,100368.61
2019-05-22T22:36:03.557Z,100367.62
2019-05-22T22:41:08.957Z,100372.08
2019-05-22T22:46:27.808Z,100367.42
2019-05-22T22:51:33.386Z,100364.47
2019-05-22T22:56:39.574Z,100367.05
2019-05-22T23:01:48.237Z,100357.28
2019-05-22T23:06:54.111Z,100374.28
2019-05-22T23:11:59.953Z,100374.28
2019-05-22T23:17:05.743Z,100377.84
2019-05-22T23:22:13.468Z,100389.98
2019-05-22T23:27:20.011Z,100389.98
2019-05-22T23:32:24.739Z,100400.05
2019-05-22T23:37:29.574Z,100407.39
2019-05-22T23:42:38.793Z,100407.39
2019-05-22T23:48:09.142Z,100412.79
2019-05-22T23:53:13.551Z,100405.55
2019-05-22T23:58:20.375Z,100403.23
